sensor_id;sensor_type;location;lat;lon;timestamp;P1;durP1;ratioP1;P2;durP2;ratioP2
7531;SDS011;3807;49.030;8.714;2023-03-13T00:03:52;5.83;;;2.07;;
7531;SDS011;3807;49.030;8.714;2023-03-13T00:06:19;6.20;;;1.97;;
7531;SDS011;3807;49.030;8.714;2023-03-13T00:08:45;6.87;;;1.73;;
7531;SDS011;3807;49.030;8.714;2023-03-13T00:11:11;9.33;;;2.57;;
7531;SDS011;3807;49.030;8.714;2023-03-13T00:13:37;7.93;;;2.07;;
7531;SDS011;3807;49.030;8.714;2023-03-13T00:16:10;10.57;;;1.97;;
7531;SDS011;3807;49.030;8.714;2023-03-13T00:18:37;8.37;;;1.80;;
7531;SDS011;3807;49.030;8.714;2023-03-13T00:21:03;6.40;;;2.03;;
7531;SDS011;3807;49.030;8.714;2023-03-13T00:23:33;8.00;;;2.53;;
7531;SDS011;3807;49.030;8.714;2023-03-13T00:26:02;9.17;;;1.87;;
7531;SDS011;3807;49.030;8.714;2023-03-13T00:28:30;12.17;;;2.63;;
7531;SDS011;3807;49.030;8.714;2023-03-13T00:31:03;5.53;;;2.10;;
7531;SDS011;3807;49.030;8.714;2023-03-13T00:33:34;5.10;;;2.10;;
7531;SDS011;3807;49.030;8.714;2023-03-13T00:36:01;5.80;;;1.70;;
7531;SDS011;3807;49.030;8.714;2023-03-13T00:38:29;5.23;;;2.00;;
7531;SDS011;3807;49.030;8.714;2023-03-13T00:41:02;10.57;;;1.87;;
7531;SDS011;3807;49.030;8.714;2023-03-13T00:43:29;10.10;;;2.50;;
7531;SDS011;3807;49.030;8.714;2023-03-13T00:45:55;7.27;;;1.97;;
7531;SDS011;3807;49.030;8.714;2023-03-13T00:48:21;7.03;;;1.87;;
7531;SDS011;3807;49.030;8.714;2023-03-13T00:50:47;4.50;;;1.77;;
7531;SDS011;3807;49.030;8.714;2023-03-13T00:53:13;8.97;;;2.17;;
7531;SDS011;3807;49.030;8.714;2023-03-13T00:55:38;4.90;;;1.87;;
7531;SDS011;3807;49.030;8.714;2023-03-13T00:58:03;4.73;;;1.97;;
7531;SDS011;3807;49.030;8.714;2023-03-13T01:00:29;8.17;;;2.50;;
7531;SDS011;3807;49.030;8.714;2023-03-13T01:02:54;7.27;;;1.70;;
7531;SDS011;3807;49.030;8.714;2023-03-13T01:05:19;3.90;;;1.50;;
7531;SDS011;3807;49.030;8.714;2023-03-13T01:07:44;4.43;;;1.87;;
7531;SDS011;3807;49.030;8.714;2023-03-13T01:10:10;5.40;;;1.80;;
7531;SDS011;3807;49.030;8.714;2023-03-13T01:12:35;9.40;;;2.23;;
7531;SDS011;3807;49.030;8.714;2023-03-13T01:15:01;7.27;;;2.13;;
7531;SDS011;3807;49.030;8.714;2023-03-13T01:17:26;4.43;;;1.40;;
7531;SDS011;3807;49.030;8.714;2023-03-13T01:19:54;8.70;;;1.93;;
7531;SDS011;3807;49.030;8.714;2023-03-13T01:22:20;8.30;;;1.70;;
7531;SDS011;3807;49.030;8.714;2023-03-13T01:24:45;4.83;;;2.07;;
7531;SDS011;3807;49.030;8.714;2023-03-13T01:27:14;7.40;;;1.77;;
7531;SDS011;3807;49.030;8.714;2023-03-13T01:29:39;7.20;;;1.80;;
7531;SDS011;3807;49.030;8.714;2023-03-13T01:32:05;6.20;;;1.63;;
7531;SDS011;3807;49.030;8.714;2023-03-13T01:34:30;5.77;;;2.07;;
7531;SDS011;3807;49.030;8.714;2023-03-13T01:36:56;10.33;;;1.93;;
7531;SDS011;3807;49.030;8.714;2023-03-13T01:39:21;10.33;;;2.00;;
7531;SDS011;3807;49.030;8.714;2023-03-13T01:41:46;7.57;;;1.60;;
7531;SDS011;3807;49.030;8.714;2023-03-13T01:44:20;5.70;;;1.80;;
7531;SDS011;3807;49.030;8.714;2023-03-13T01:46:47;9.90;;;1.50;;
7531;SDS011;3807;49.030;8.714;2023-03-13T01:52:02;4.40;;;1.53;;
7531;SDS011;3807;49.030;8.714;2023-03-13T01:54:34;6.77;;;2.03;;
7531;SDS011;3807;49.030;8.714;2023-03-13T01:59:56;5.10;;;1.57;;
7531;SDS011;3807;49.030;8.714;2023-03-13T02:02:26;7.20;;;1.60;;
7531;SDS011;3807;49.030;8.714;2023-03-13T02:04:54;5.67;;;1.50;;
7531;SDS011;3807;49.030;8.714;2023-03-13T02:07:25;7.00;;;1.83;;
7531;SDS011;3807;49.030;8.714;2023-03-13T02:09:59;9.63;;;1.53;;
7531;SDS011;3807;49.030;8.714;2023-03-13T02:12:30;5.40;;;1.50;;
7531;SDS011;3807;49.030;8.714;2023-03-13T02:14:58;4.27;;;1.50;;
7531;SDS011;3807;49.030;8.714;2023-03-13T02:17:28;5.10;;;1.67;;
7531;SDS011;3807;49.030;8.714;2023-03-13T02:19:54;7.00;;;1.50;;
7531;SDS011;3807;49.030;8.714;2023-03-13T02:22:34;2.77;;;1.10;;
7531;SDS011;3807;49.030;8.714;2023-03-13T02:27:43;6.73;;;1.60;;
7531;SDS011;3807;49.030;8.714;2023-03-13T02:30:11;4.63;;;1.83;;
7531;SDS011;3807;49.030;8.714;2023-03-13T02:32:39;4.07;;;1.50;;
7531;SDS011;3807;49.030;8.714;2023-03-13T02:35:08;5.03;;;1.00;;
7531;SDS011;3807;49.030;8.714;2023-03-13T02:37:35;6.13;;;1.50;;
7531;SDS011;3807;49.030;8.714;2023-03-13T02:40:02;4.83;;;1.70;;
7531;SDS011;3807;49.030;8.714;2023-03-13T02:42:40;3.50;;;1.33;;
7531;SDS011;3807;49.030;8.714;2023-03-13T02:45:07;1.97;;;1.20;;
7531;SDS011;3807;49.030;8.714;2023-03-13T02:47:33;1.37;;;1.00;;
7531;SDS011;3807;49.030;8.714;2023-03-13T02:49:59;3.27;;;1.03;;
7531;SDS011;3807;49.030;8.714;2023-03-13T02:52:31;6.67;;;1.47;;
7531;SDS011;3807;49.030;8.714;2023-03-13T02:55:23;4.37;;;1.30;;
7531;SDS011;3807;49.030;8.714;2023-03-13T02:57:52;7.63;;;1.33;;
7531;SDS011;3807;49.030;8.714;2023-03-13T03:00:17;1.93;;;1.30;;
7531;SDS011;3807;49.030;8.714;2023-03-13T03:02:43;3.40;;;1.10;;
7531;SDS011;3807;49.030;8.714;2023-03-13T03:05:10;3.13;;;1.37;;
7531;SDS011;3807;49.030;8.714;2023-03-13T03:07:36;2.33;;;1.10;;
7531;SDS011;3807;49.030;8.714;2023-03-13T03:10:02;2.93;;;1.10;;
7531;SDS011;3807;49.030;8.714;2023-03-13T03:12:28;2.73;;;0.83;;
7531;SDS011;3807;49.030;8.714;2023-03-13T03:14:53;3.07;;;1.10;;
7531;SDS011;3807;49.030;8.714;2023-03-13T03:17:19;6.80;;;1.67;;
7531;SDS011;3807;49.030;8.714;2023-03-13T03:19:44;2.73;;;1.10;;
7531;SDS011;3807;49.030;8.714;2023-03-13T03:22:10;2.10;;;0.90;;
7531;SDS011;3807;49.030;8.714;2023-03-13T03:24:35;4.70;;;1.30;;
7531;SDS011;3807;49.030;8.714;2023-03-13T03:27:00;4.97;;;1.53;;
7531;SDS011;3807;49.030;8.714;2023-03-13T03:29:26;2.93;;;1.10;;
7531;SDS011;3807;49.030;8.714;2023-03-13T03:31:51;1.30;;;1.10;;
7531;SDS011;3807;49.030;8.714;2023-03-13T03:34:17;3.83;;;1.20;;
7531;SDS011;3807;49.030;8.714;2023-03-13T03:36:42;5.50;;;1.40;;
7531;SDS011;3807;49.030;8.714;2023-03-13T03:39:07;3.00;;;1.37;;
7531;SDS011;3807;49.030;8.714;2023-03-13T03:41:33;5.97;;;1.80;;
7531;SDS011;3807;49.030;8.714;2023-03-13T03:43:59;7.17;;;2.20;;
7531;SDS011;3807;49.030;8.714;2023-03-13T03:46:25;6.87;;;1.50;;
7531;SDS011;3807;49.030;8.714;2023-03-13T03:48:50;7.13;;;1.80;;
7531;SDS011;3807;49.030;8.714;2023-03-13T03:51:15;4.43;;;1.53;;
7531;SDS011;3807;49.030;8.714;2023-03-13T03:53:41;4.67;;;1.70;;
7531;SDS011;3807;49.030;8.714;2023-03-13T03:56:06;4.27;;;1.53;;
7531;SDS011;3807;49.030;8.714;2023-03-13T03:58:32;4.33;;;1.50;;
7531;SDS011;3807;49.030;8.714;2023-03-13T04:00:57;3.17;;;1.53;;
7531;SDS011;3807;49.030;8.714;2023-03-13T04:03:23;4.73;;;1.50;;
7531;SDS011;3807;49.030;8.714;2023-03-13T04:05:49;2.63;;;1.03;;
7531;SDS011;3807;49.030;8.714;2023-03-13T04:08:14;4.70;;;1.20;;
7531;SDS011;3807;49.030;8.714;2023-03-13T04:10:40;3.03;;;1.03;;
7531;SDS011;3807;49.030;8.714;2023-03-13T04:13:05;3.47;;;1.17;;
7531;SDS011;3807;49.030;8.714;2023-03-13T04:15:31;2.83;;;1.47;;
7531;SDS011;3807;49.030;8.714;2023-03-13T04:17:56;4.33;;;2.00;;
7531;SDS011;3807;49.030;8.714;2023-03-13T04:20:22;8.87;;;4.60;;
7531;SDS011;3807;49.030;8.714;2023-03-13T04:22:47;19.30;;;9.93;;
7531;SDS011;3807;49.030;8.714;2023-03-13T04:25:12;5.70;;;3.80;;
7531;SDS011;3807;49.030;8.714;2023-03-13T04:27:38;5.63;;;1.13;;
7531;SDS011;3807;49.030;8.714;2023-03-13T04:30:03;1.60;;;1.20;;
7531;SDS011;3807;49.030;8.714;2023-03-13T04:32:29;2.30;;;1.10;;
7531;SDS011;3807;49.030;8.714;2023-03-13T04:34:54;1.80;;;1.17;;
7531;SDS011;3807;49.030;8.714;2023-03-13T04:37:20;3.50;;;1.00;;
7531;SDS011;3807;49.030;8.714;2023-03-13T04:39:45;1.10;;;0.93;;
7531;SDS011;3807;49.030;8.714;2023-03-13T04:42:11;2.00;;;0.90;;
7531;SDS011;3807;49.030;8.714;2023-03-13T04:44:37;2.77;;;1.03;;
7531;SDS011;3807;49.030;8.714;2023-03-13T04:47:02;2.03;;;1.10;;
7531;SDS011;3807;49.030;8.714;2023-03-13T04:49:28;0.80;;;0.73;;
7531;SDS011;3807;49.030;8.714;2023-03-13T04:51:53;0.90;;;0.70;;
7531;SDS011;3807;49.030;8.714;2023-03-13T04:54:19;1.97;;;1.00;;
7531;SDS011;3807;49.030;8.714;2023-03-13T04:56:45;1.17;;;0.83;;
7531;SDS011;3807;49.030;8.714;2023-03-13T04:59:10;2.13;;;0.80;;
7531;SDS011;3807;49.030;8.714;2023-03-13T05:01:36;1.07;;;0.70;;
7531;SDS011;3807;49.030;8.714;2023-03-13T05:04:02;1.10;;;0.90;;
7531;SDS011;3807;49.030;8.714;2023-03-13T05:06:28;1.97;;;0.97;;
7531;SDS011;3807;49.030;8.714;2023-03-13T05:08:54;1.47;;;0.70;;
7531;SDS011;3807;49.030;8.714;2023-03-13T05:11:19;0.83;;;0.83;;
7531;SDS011;3807;49.030;8.714;2023-03-13T05:13:44;1.17;;;0.90;;
7531;SDS011;3807;49.030;8.714;2023-03-13T05:16:10;1.13;;;0.97;;
7531;SDS011;3807;49.030;8.714;2023-03-13T05:18:35;1.43;;;0.90;;
7531;SDS011;3807;49.030;8.714;2023-03-13T05:21:01;2.40;;;1.10;;
7531;SDS011;3807;49.030;8.714;2023-03-13T05:23:26;1.07;;;0.80;;
7531;SDS011;3807;49.030;8.714;2023-03-13T05:25:52;0.90;;;0.77;;
7531;SDS011;3807;49.030;8.714;2023-03-13T05:28:17;1.13;;;0.80;;
7531;SDS011;3807;49.030;8.714;2023-03-13T05:30:43;2.30;;;0.60;;
7531;SDS011;3807;49.030;8.714;2023-03-13T05:33:08;2.67;;;0.80;;
7531;SDS011;3807;49.030;8.714;2023-03-13T05:35:33;0.70;;;0.70;;
7531;SDS011;3807;49.030;8.714;2023-03-13T05:37:58;0.70;;;0.70;;
7531;SDS011;3807;49.030;8.714;2023-03-13T05:40:24;0.87;;;0.80;;
7531;SDS011;3807;49.030;8.714;2023-03-13T05:42:49;1.50;;;0.60;;
7531;SDS011;3807;49.030;8.714;2023-03-13T05:45:14;1.87;;;0.80;;
7531;SDS011;3807;49.030;8.714;2023-03-13T05:47:40;0.63;;;0.60;;
7531;SDS011;3807;49.030;8.714;2023-03-13T05:50:06;0.70;;;0.70;;
7531;SDS011;3807;49.030;8.714;2023-03-13T05:52:32;0.87;;;0.73;;
7531;SDS011;3807;49.030;8.714;2023-03-13T05:54:58;0.73;;;0.73;;
7531;SDS011;3807;49.030;8.714;2023-03-13T05:57:23;0.73;;;0.63;;
7531;SDS011;3807;49.030;8.714;2023-03-13T05:59:49;2.20;;;1.53;;
7531;SDS011;3807;49.030;8.714;2023-03-13T06:02:14;0.80;;;0.63;;
7531;SDS011;3807;49.030;8.714;2023-03-13T06:04:39;0.60;;;0.60;;
7531;SDS011;3807;49.030;8.714;2023-03-13T06:07:05;1.20;;;1.10;;
7531;SDS011;3807;49.030;8.714;2023-03-13T06:09:30;0.80;;;0.80;;
7531;SDS011;3807;49.030;8.714;2023-03-13T06:11:56;1.13;;;1.00;;
7531;SDS011;3807;49.030;8.714;2023-03-13T06:14:21;1.50;;;1.40;;
7531;SDS011;3807;49.030;8.714;2023-03-13T06:16:47;1.20;;;0.60;;
7531;SDS011;3807;49.030;8.714;2023-03-13T06:19:12;0.80;;;0.80;;
7531;SDS011;3807;49.030;8.714;2023-03-13T06:21:37;0.60;;;0.60;;
7531;SDS011;3807;49.030;8.714;2023-03-13T06:24:03;0.67;;;0.67;;
7531;SDS011;3807;49.030;8.714;2023-03-13T06:26:28;1.03;;;0.73;;
7531;SDS011;3807;49.030;8.714;2023-03-13T06:28:54;2.00;;;0.60;;
7531;SDS011;3807;49.030;8.714;2023-03-13T06:31:19;0.50;;;0.50;;
7531;SDS011;3807;49.030;8.714;2023-03-13T06:33:45;1.00;;;0.80;;
7531;SDS011;3807;49.030;8.714;2023-03-13T06:36:10;0.60;;;0.60;;
7531;SDS011;3807;49.030;8.714;2023-03-13T06:38:36;1.53;;;0.70;;
7531;SDS011;3807;49.030;8.714;2023-03-13T06:41:01;0.60;;;0.60;;
7531;SDS011;3807;49.030;8.714;2023-03-13T06:43:27;1.53;;;0.80;;
7531;SDS011;3807;49.030;8.714;2023-03-13T06:45:52;1.47;;;0.60;;
7531;SDS011;3807;49.030;8.714;2023-03-13T06:48:18;1.00;;;0.87;;
7531;SDS011;3807;49.030;8.714;2023-03-13T06:50:43;0.93;;;0.87;;
7531;SDS011;3807;49.030;8.714;2023-03-13T06:53:16;0.60;;;0.60;;
7531;SDS011;3807;49.030;8.714;2023-03-13T06:55:43;0.63;;;0.63;;
7531;SDS011;3807;49.030;8.714;2023-03-13T06:58:09;1.37;;;0.80;;
7531;SDS011;3807;49.030;8.714;2023-03-13T07:00:34;0.93;;;0.60;;
7531;SDS011;3807;49.030;8.714;2023-03-13T07:03:00;1.77;;;1.00;;
7531;SDS011;3807;49.030;8.714;2023-03-13T07:05:25;0.80;;;0.70;;
7531;SDS011;3807;49.030;8.714;2023-03-13T07:07:50;0.60;;;0.60;;
7531;SDS011;3807;49.030;8.714;2023-03-13T07:10:16;0.70;;;0.70;;
7531;SDS011;3807;49.030;8.714;2023-03-13T07:12:41;0.70;;;0.70;;
7531;SDS011;3807;49.030;8.714;2023-03-13T07:15:07;0.50;;;0.50;;
7531;SDS011;3807;49.030;8.714;2023-03-13T07:17:33;0.83;;;0.70;;
7531;SDS011;3807;49.030;8.714;2023-03-13T07:19:59;0.50;;;0.50;;
7531;SDS011;3807;49.030;8.714;2023-03-13T07:22:24;0.80;;;0.80;;
7531;SDS011;3807;49.030;8.714;2023-03-13T07:24:50;2.77;;;0.80;;
7531;SDS011;3807;49.030;8.714;2023-03-13T07:27:15;1.90;;;0.80;;
7531;SDS011;3807;49.030;8.714;2023-03-13T07:29:44;2.10;;;0.80;;
7531;SDS011;3807;49.030;8.714;2023-03-13T07:32:10;2.73;;;1.03;;
7531;SDS011;3807;49.030;8.714;2023-03-13T07:34:35;1.60;;;0.70;;
7531;SDS011;3807;49.030;8.714;2023-03-13T07:37:00;1.70;;;0.90;;
7531;SDS011;3807;49.030;8.714;2023-03-13T07:39:25;1.40;;;1.10;;
7531;SDS011;3807;49.030;8.714;2023-03-13T07:41:51;1.10;;;1.00;;
7531;SDS011;3807;49.030;8.714;2023-03-13T07:44:16;1.60;;;1.00;;
7531;SDS011;3807;49.030;8.714;2023-03-13T07:46:42;0.60;;;0.60;;
7531;SDS011;3807;49.030;8.714;2023-03-13T07:49:08;0.90;;;0.83;;
7531;SDS011;3807;49.030;8.714;2023-03-13T07:51:33;2.80;;;1.40;;
7531;SDS011;3807;49.030;8.714;2023-03-13T07:53:58;1.10;;;1.00;;
7531;SDS011;3807;49.030;8.714;2023-03-13T07:56:23;0.80;;;0.80;;
7531;SDS011;3807;49.030;8.714;2023-03-13T07:58:49;1.17;;;0.90;;
7531;SDS011;3807;49.030;8.714;2023-03-13T08:01:19;0.60;;;0.60;;
7531;SDS011;3807;49.030;8.714;2023-03-13T08:03:46;0.93;;;0.60;;
7531;SDS011;3807;49.030;8.714;2023-03-13T08:06:17;1.27;;;0.87;;
7531;SDS011;3807;49.030;8.714;2023-03-13T08:08:44;0.70;;;0.70;;
7531;SDS011;3807;49.030;8.714;2023-03-13T08:11:14;0.70;;;0.70;;
7531;SDS011;3807;49.030;8.714;2023-03-13T08:13:41;0.90;;;0.60;;
7531;SDS011;3807;49.030;8.714;2023-03-13T08:16:11;1.17;;;0.80;;
7531;SDS011;3807;49.030;8.714;2023-03-13T08:18:39;0.70;;;0.70;;
7531;SDS011;3807;49.030;8.714;2023-03-13T08:21:08;0.63;;;0.63;;
7531;SDS011;3807;49.030;8.714;2023-03-13T08:23:35;2.00;;;0.80;;
7531;SDS011;3807;49.030;8.714;2023-03-13T08:26:02;0.87;;;0.73;;
7531;SDS011;3807;49.030;8.714;2023-03-13T08:28:29;0.90;;;0.80;;
7531;SDS011;3807;49.030;8.714;2023-03-13T08:30:55;0.97;;;0.60;;
7531;SDS011;3807;49.030;8.714;2023-03-13T08:33:20;0.70;;;0.70;;
7531;SDS011;3807;49.030;8.714;2023-03-13T08:35:45;0.70;;;0.60;;
7531;SDS011;3807;49.030;8.714;2023-03-13T08:38:11;0.73;;;0.70;;
7531;SDS011;3807;49.030;8.714;2023-03-13T08:40:36;2.97;;;0.90;;
7531;SDS011;3807;49.030;8.714;2023-03-13T08:43:01;1.67;;;0.80;;
7531;SDS011;3807;49.030;8.714;2023-03-13T08:45:26;2.13;;;0.83;;
7531;SDS011;3807;49.030;8.714;2023-03-13T08:47:52;1.10;;;1.00;;
7531;SDS011;3807;49.030;8.714;2023-03-13T08:50:18;1.13;;;0.90;;
7531;SDS011;3807;49.030;8.714;2023-03-13T08:52:43;1.10;;;1.00;;
7531;SDS011;3807;49.030;8.714;2023-03-13T08:55:09;1.17;;;0.83;;
7531;SDS011;3807;49.030;8.714;2023-03-13T08:57:34;0.67;;;0.67;;
7531;SDS011;3807;49.030;8.714;2023-03-13T09:00:00;3.97;;;1.00;;
7531;SDS011;3807;49.030;8.714;2023-03-13T09:02:25;1.63;;;0.80;;
7531;SDS011;3807;49.030;8.714;2023-03-13T09:04:50;1.47;;;0.90;;
7531;SDS011;3807;49.030;8.714;2023-03-13T09:07:16;0.90;;;0.80;;
7531;SDS011;3807;49.030;8.714;2023-03-13T09:09:42;1.77;;;1.10;;
7531;SDS011;3807;49.030;8.714;2023-03-13T09:12:07;1.40;;;1.10;;
7531;SDS011;3807;49.030;8.714;2023-03-13T09:14:33;1.83;;;1.00;;
7531;SDS011;3807;49.030;8.714;2023-03-13T09:16:58;2.07;;;1.10;;
7531;SDS011;3807;49.030;8.714;2023-03-13T09:19:24;0.87;;;0.83;;
7531;SDS011;3807;49.030;8.714;2023-03-13T09:21:49;2.63;;;0.97;;
7531;SDS011;3807;49.030;8.714;2023-03-13T09:24:15;2.57;;;1.17;;
7531;SDS011;3807;49.030;8.714;2023-03-13T09:26:40;1.60;;;1.00;;
7531;SDS011;3807;49.030;8.714;2023-03-13T09:29:05;1.93;;;1.20;;
7531;SDS011;3807;49.030;8.714;2023-03-13T09:31:31;1.87;;;1.37;;
7531;SDS011;3807;49.030;8.714;2023-03-13T09:33:57;3.40;;;1.20;;
7531;SDS011;3807;49.030;8.714;2023-03-13T09:36:23;1.83;;;1.13;;
7531;SDS011;3807;49.030;8.714;2023-03-13T09:38:50;1.30;;;1.10;;
7531;SDS011;3807;49.030;8.714;2023-03-13T09:46:16;2.67;;;1.10;;
7531;SDS011;3807;49.030;8.714;2023-03-13T09:48:46;3.23;;;1.30;;
7531;SDS011;3807;49.030;8.714;2023-03-13T09:51:22;1.47;;;1.33;;
7531;SDS011;3807;49.030;8.714;2023-03-13T09:53:54;1.37;;;1.27;;
7531;SDS011;3807;49.030;8.714;2023-03-13T09:56:24;2.63;;;1.40;;
7531;SDS011;3807;49.030;8.714;2023-03-13T09:59:00;4.67;;;1.60;;
7531;SDS011;3807;49.030;8.714;2023-03-13T10:01:35;3.63;;;1.27;;
7531;SDS011;3807;49.030;8.714;2023-03-13T10:06:55;2.17;;;1.30;;
7531;SDS011;3807;49.030;8.714;2023-03-13T10:09:30;3.33;;;1.40;;
7531;SDS011;3807;49.030;8.714;2023-03-13T10:17:42;2.80;;;1.40;;
7531;SDS011;3807;49.030;8.714;2023-03-13T10:20:41;2.53;;;1.43;;
7531;SDS011;3807;49.030;8.714;2023-03-13T10:23:01;2.03;;;1.40;;
7531;SDS011;3807;49.030;8.714;2023-03-13T10:25:31;2.97;;;1.53;;
7531;SDS011;3807;49.030;8.714;2023-03-13T10:27:59;3.00;;;1.40;;
7531;SDS011;3807;49.030;8.714;2023-03-13T10:30:29;4.40;;;1.30;;
7531;SDS011;3807;49.030;8.714;2023-03-13T10:35:38;3.30;;;1.23;;
7531;SDS011;3807;49.030;8.714;2023-03-13T10:38:08;3.13;;;1.27;;
7531;SDS011;3807;49.030;8.714;2023-03-13T10:40:36;2.30;;;1.60;;
7531;SDS011;3807;49.030;8.714;2023-03-13T10:43:11;3.07;;;1.53;;
7531;SDS011;3807;49.030;8.714;2023-03-13T10:45:41;3.43;;;1.47;;
7531;SDS011;3807;49.030;8.714;2023-03-13T10:48:24;1.80;;;1.40;;
7531;SDS011;3807;49.030;8.714;2023-03-13T10:50:53;2.03;;;1.40;;
7531;SDS011;3807;49.030;8.714;2023-03-13T10:55:56;3.73;;;1.60;;
7531;SDS011;3807;49.030;8.714;2023-03-13T10:58:29;3.10;;;1.77;;
7531;SDS011;3807;49.030;8.714;2023-03-13T11:03:53;3.23;;;1.60;;
7531;SDS011;3807;49.030;8.714;2023-03-13T11:06:24;2.50;;;1.70;;
7531;SDS011;3807;49.030;8.714;2023-03-13T11:08:57;1.73;;;1.40;;
7531;SDS011;3807;49.030;8.714;2023-03-13T11:11:24;1.60;;;1.33;;
7531;SDS011;3807;49.030;8.714;2023-03-13T11:13:54;4.10;;;1.60;;
7531;SDS011;3807;49.030;8.714;2023-03-13T11:16:32;3.47;;;1.30;;
7531;SDS011;3807;49.030;8.714;2023-03-13T11:19:15;3.63;;;1.60;;
7531;SDS011;3807;49.030;8.714;2023-03-13T11:21:46;1.73;;;1.40;;
7531;SDS011;3807;49.030;8.714;2023-03-13T11:24:19;1.50;;;1.23;;
7531;SDS011;3807;49.030;8.714;2023-03-13T11:26:53;5.97;;;1.43;;
7531;SDS011;3807;49.030;8.714;2023-03-13T11:32:31;2.27;;;1.70;;
7531;SDS011;3807;49.030;8.714;2023-03-13T11:38:35;2.30;;;1.50;;
7531;SDS011;3807;49.030;8.714;2023-03-13T11:54:23;1.57;;;1.30;;
7531;SDS011;3807;49.030;8.714;2023-03-13T11:56:55;2.67;;;1.53;;
7531;SDS011;3807;49.030;8.714;2023-03-13T11:59:26;2.63;;;1.70;;
7531;SDS011;3807;49.030;8.714;2023-03-13T12:02:03;1.87;;;1.53;;
7531;SDS011;3807;49.030;8.714;2023-03-13T12:04:45;3.87;;;1.50;;
7531;SDS011;3807;49.030;8.714;2023-03-13T12:07:29;1.80;;;1.47;;
7531;SDS011;3807;49.030;8.714;2023-03-13T12:10:03;1.87;;;1.03;;
7531;SDS011;3807;49.030;8.714;2023-03-13T12:17:36;2.23;;;1.50;;
7531;SDS011;3807;49.030;8.714;2023-03-13T12:22:42;2.03;;;1.30;;
7531;SDS011;3807;49.030;8.714;2023-03-13T12:28:00;2.70;;;1.43;;
7531;SDS011;3807;49.030;8.714;2023-03-13T12:30:41;2.17;;;1.10;;
7531;SDS011;3807;49.030;8.714;2023-03-13T12:33:15;1.03;;;0.87;;
7531;SDS011;3807;49.030;8.714;2023-03-13T12:35:44;2.00;;;1.23;;
7531;SDS011;3807;49.030;8.714;2023-03-13T12:43:38;2.03;;;1.20;;
7531;SDS011;3807;49.030;8.714;2023-03-13T13:00:15;3.73;;;1.20;;
7531;SDS011;3807;49.030;8.714;2023-03-13T13:02:59;1.57;;;1.13;;
7531;SDS011;3807;49.030;8.714;2023-03-13T13:05:34;1.40;;;1.20;;
7531;SDS011;3807;49.030;8.714;2023-03-13T13:08:00;2.50;;;1.40;;
7531;SDS011;3807;49.030;8.714;2023-03-13T13:10:26;2.40;;;0.90;;
7531;SDS011;3807;49.030;8.714;2023-03-13T13:16:14;3.47;;;1.10;;
7531;SDS011;3807;49.030;8.714;2023-03-13T13:18:35;1.13;;;1.00;;
7531;SDS011;3807;49.030;8.714;2023-03-13T13:23:59;1.63;;;0.90;;
7531;SDS011;3807;49.030;8.714;2023-03-13T13:28:59;2.77;;;1.20;;
7531;SDS011;3807;49.030;8.714;2023-03-13T13:36:52;2.23;;;1.10;;
7531;SDS011;3807;49.030;8.714;2023-03-13T13:45:00;1.20;;;0.87;;
7531;SDS011;3807;49.030;8.714;2023-03-13T13:47:28;1.50;;;0.90;;
7531;SDS011;3807;49.030;8.714;2023-03-13T13:49:57;2.20;;;1.00;;
7531;SDS011;3807;49.030;8.714;2023-03-13T13:55:00;2.27;;;0.90;;
7531;SDS011;3807;49.030;8.714;2023-03-13T13:57:29;1.10;;;0.87;;
7531;SDS011;3807;49.030;8.714;2023-03-13T14:02:51;1.20;;;0.90;;
7531;SDS011;3807;49.030;8.714;2023-03-13T14:05:25;3.80;;;1.40;;
7531;SDS011;3807;49.030;8.714;2023-03-13T14:08:35;3.43;;;1.10;;
7531;SDS011;3807;49.030;8.714;2023-03-13T14:10:45;3.83;;;1.10;;
7531;SDS011;3807;49.030;8.714;2023-03-13T14:13:18;2.03;;;1.00;;
7531;SDS011;3807;49.030;8.714;2023-03-13T14:15:46;1.57;;;0.80;;
7531;SDS011;3807;49.030;8.714;2023-03-13T14:18:20;3.23;;;1.00;;
7531;SDS011;3807;49.030;8.714;2023-03-13T14:21:00;7.17;;;0.93;;
7531;SDS011;3807;49.030;8.714;2023-03-13T14:23:29;1.80;;;1.00;;
7531;SDS011;3807;49.030;8.714;2023-03-13T14:28:50;2.33;;;0.80;;
7531;SDS011;3807;49.030;8.714;2023-03-13T14:33:58;1.40;;;0.77;;
7531;SDS011;3807;49.030;8.714;2023-03-13T14:36:25;1.90;;;0.70;;
7531;SDS011;3807;49.030;8.714;2023-03-13T14:38:52;1.47;;;1.00;;
7531;SDS011;3807;49.030;8.714;2023-03-13T14:41:23;3.37;;;1.00;;
7531;SDS011;3807;49.030;8.714;2023-03-13T14:43:54;1.27;;;0.80;;
7531;SDS011;3807;49.030;8.714;2023-03-13T14:46:45;1.20;;;0.87;;
7531;SDS011;3807;49.030;8.714;2023-03-13T14:49:15;1.30;;;0.80;;
7531;SDS011;3807;49.030;8.714;2023-03-13T14:51:43;1.10;;;0.80;;
7531;SDS011;3807;49.030;8.714;2023-03-13T14:54:23;1.20;;;0.87;;
7531;SDS011;3807;49.030;8.714;2023-03-13T14:57:00;3.37;;;1.00;;
7531;SDS011;3807;49.030;8.714;2023-03-13T14:59:37;1.10;;;0.83;;
7531;SDS011;3807;49.030;8.714;2023-03-13T15:05:05;1.53;;;1.10;;
7531;SDS011;3807;49.030;8.714;2023-03-13T15:07:41;0.70;;;0.70;;
7531;SDS011;3807;49.030;8.714;2023-03-13T15:12:48;2.00;;;0.93;;
7531;SDS011;3807;49.030;8.714;2023-03-13T15:15:14;2.43;;;1.20;;
7531;SDS011;3807;49.030;8.714;2023-03-13T15:17:39;1.20;;;1.00;;
7531;SDS011;3807;49.030;8.714;2023-03-13T15:20:05;1.63;;;1.00;;
7531;SDS011;3807;49.030;8.714;2023-03-13T15:22:33;1.27;;;0.73;;
7531;SDS011;3807;49.030;8.714;2023-03-13T15:25:01;1.70;;;0.80;;
7531;SDS011;3807;49.030;8.714;2023-03-13T15:27:27;3.65;;;1.02;;
7531;SDS011;3807;49.030;8.714;2023-03-13T15:29:53;1.33;;;1.23;;
7531;SDS011;3807;49.030;8.714;2023-03-13T15:32:26;1.67;;;1.00;;
7531;SDS011;3807;49.030;8.714;2023-03-13T15:34:54;1.20;;;0.70;;
7531;SDS011;3807;49.030;8.714;2023-03-13T15:37:24;2.37;;;0.90;;
7531;SDS011;3807;49.030;8.714;2023-03-13T15:39:50;1.57;;;0.80;;
7531;SDS011;3807;49.030;8.714;2023-03-13T15:42:15;1.55;;;0.80;;
7531;SDS011;3807;49.030;8.714;2023-03-13T15:44:41;2.47;;;0.80;;
7531;SDS011;3807;49.030;8.714;2023-03-13T15:47:08;2.67;;;1.00;;
7531;SDS011;3807;49.030;8.714;2023-03-13T15:49:36;5.40;;;0.95;;
7531;SDS011;3807;49.030;8.714;2023-03-13T15:52:02;1.65;;;0.90;;
7531;SDS011;3807;49.030;8.714;2023-03-13T15:54:27;1.15;;;0.82;;
7531;SDS011;3807;49.030;8.714;2023-03-13T15:56:53;1.58;;;1.10;;
7531;SDS011;3807;49.030;8.714;2023-03-13T15:59:18;3.60;;;1.10;;
7531;SDS011;3807;49.030;8.714;2023-03-13T16:01:44;1.23;;;1.00;;
7531;SDS011;3807;49.030;8.714;2023-03-13T16:04:10;1.60;;;1.00;;
7531;SDS011;3807;49.030;8.714;2023-03-13T16:06:35;1.80;;;1.00;;
7531;SDS011;3807;49.030;8.714;2023-03-13T16:09:04;2.12;;;1.10;;
7531;SDS011;3807;49.030;8.714;2023-03-13T16:11:30;2.00;;;1.02;;
7531;SDS011;3807;49.030;8.714;2023-03-13T16:13:56;1.20;;;1.05;;
7531;SDS011;3807;49.030;8.714;2023-03-13T16:18:53;3.22;;;1.10;;
7531;SDS011;3807;49.030;8.714;2023-03-13T16:21:22;3.37;;;1.10;;
7531;SDS011;3807;49.030;8.714;2023-03-13T16:23:49;2.37;;;1.10;;
7531;SDS011;3807;49.030;8.714;2023-03-13T16:26:15;1.52;;;1.10;;
7531;SDS011;3807;49.030;8.714;2023-03-13T16:28:43;1.90;;;0.75;;
7531;SDS011;3807;49.030;8.714;2023-03-13T16:31:16;3.10;;;0.88;;
7531;SDS011;3807;49.030;8.714;2023-03-13T16:33:46;1.95;;;0.90;;
7531;SDS011;3807;49.030;8.714;2023-03-13T16:36:13;1.95;;;1.02;;
7531;SDS011;3807;49.030;8.714;2023-03-13T16:38:44;1.12;;;1.02;;
7531;SDS011;3807;49.030;8.714;2023-03-13T16:41:14;1.62;;;0.90;;
7531;SDS011;3807;49.030;8.714;2023-03-13T16:43:41;1.17;;;0.90;;
7531;SDS011;3807;49.030;8.714;2023-03-13T16:46:09;1.35;;;1.00;;
7531;SDS011;3807;49.030;8.714;2023-03-13T16:48:36;3.92;;;1.17;;
7531;SDS011;3807;49.030;8.714;2023-03-13T16:51:02;4.35;;;2.20;;
7531;SDS011;3807;49.030;8.714;2023-03-13T16:53:27;6.85;;;2.67;;
7531;SDS011;3807;49.030;8.714;2023-03-13T16:55:53;2.85;;;1.60;;
7531;SDS011;3807;49.030;8.714;2023-03-13T16:58:19;4.00;;;2.20;;
7531;SDS011;3807;49.030;8.714;2023-03-13T17:00:45;2.90;;;2.20;;
7531;SDS011;3807;49.030;8.714;2023-03-13T17:03:10;5.20;;;2.05;;
7531;SDS011;3807;49.030;8.714;2023-03-13T17:05:36;4.70;;;2.65;;
7531;SDS011;3807;49.030;8.714;2023-03-13T17:08:01;8.45;;;3.92;;
7531;SDS011;3807;49.030;8.714;2023-03-13T17:10:28;5.22;;;3.35;;
7531;SDS011;3807;49.030;8.714;2023-03-13T17:12:55;4.22;;;3.28;;
7531;SDS011;3807;49.030;8.714;2023-03-13T17:15:21;3.17;;;1.90;;
7531;SDS011;3807;49.030;8.714;2023-03-13T17:17:48;1.92;;;1.70;;
7531;SDS011;3807;49.030;8.714;2023-03-13T17:20:25;3.67;;;1.65;;